Terminal Aerodrome Forecast
Issued by NWS

Home | Current Version | Previous Version | Text Only | Print | Product List | Glossary On
Versions: 1 2 3 4 5 6 7 8 9 10 11 12 13 14 15 16 17
046
FTUS43 KDVN 211740
TAFCID
TAF
KCID 211740Z 2118/2218 18021G30KT P6SM SKC
     FM220100 17015G23KT P6SM VCSH OVC040
      TEMPO 2201/2205 3SM TSRA OVC015CB
     FM220500 28010KT 4SM -SHRA OVC015
     FM221500 33013KT P6SM OVC035=

USA.gov is the U.S. government's official web portal to all federal, state and local government web resources and services.